sensor_id;sensor_type;location;lat;lon;timestamp;P1;durP1;ratioP1;P2;durP2;ratioP2
83094;SDS011;72967;43.674;6.976;2024-01-06T00:01:21;7.47;;;5.88;;
83094;SDS011;72967;43.674;6.976;2024-01-06T00:03:46;6.72;;;5.53;;
83094;SDS011;72967;43.674;6.976;2024-01-06T00:06:13;6.38;;;5.65;;
83094;SDS011;72967;43.674;6.976;2024-01-06T00:08:39;6.80;;;5.43;;
83094;SDS011;72967;43.674;6.976;2024-01-06T00:11:04;6.78;;;4.60;;
83094;SDS011;72967;43.674;6.976;2024-01-06T00:13:30;6.65;;;5.18;;
83094;SDS011;72967;43.674;6.976;2024-01-06T00:15:55;6.85;;;5.43;;
83094;SDS011;72967;43.674;6.976;2024-01-06T00:18:20;7.10;;;5.05;;
83094;SDS011;72967;43.674;6.976;2024-01-06T00:20:46;7.70;;;5.50;;
83094;SDS011;72967;43.674;6.976;2024-01-06T00:23:11;5.82;;;5.05;;
83094;SDS011;72967;43.674;6.976;2024-01-06T00:25:37;6.75;;;5.00;;
83094;SDS011;72967;43.674;6.976;2024-01-06T00:28:02;6.65;;;4.90;;
83094;SDS011;72967;43.674;6.976;2024-01-06T00:30:28;7.55;;;5.32;;
83094;SDS011;72967;43.674;6.976;2024-01-06T00:32:53;7.70;;;4.95;;
83094;SDS011;72967;43.674;6.976;2024-01-06T00:35:18;5.95;;;4.68;;
83094;SDS011;72967;43.674;6.976;2024-01-06T00:37:44;5.47;;;4.43;;
83094;SDS011;72967;43.674;6.976;2024-01-06T00:40:09;4.40;;;3.97;;
83094;SDS011;72967;43.674;6.976;2024-01-06T00:42:35;7.13;;;4.85;;
83094;SDS011;72967;43.674;6.976;2024-01-06T00:45:01;5.88;;;4.18;;
83094;SDS011;72967;43.674;6.976;2024-01-06T00:47:26;4.60;;;3.85;;
83094;SDS011;72967;43.674;6.976;2024-01-06T00:49:52;5.13;;;3.90;;
83094;SDS011;72967;43.674;6.976;2024-01-06T00:52:17;4.75;;;2.90;;
83094;SDS011;72967;43.674;6.976;2024-01-06T00:54:42;4.15;;;3.58;;
83094;SDS011;72967;43.674;6.976;2024-01-06T00:57:08;5.53;;;3.78;;
83094;SDS011;72967;43.674;6.976;2024-01-06T00:59:33;5.75;;;3.45;;
83094;SDS011;72967;43.674;6.976;2024-01-06T01:01:59;4.78;;;3.65;;
83094;SDS011;72967;43.674;6.976;2024-01-06T01:04:24;4.25;;;3.25;;
83094;SDS011;72967;43.674;6.976;2024-01-06T01:06:49;6.03;;;4.03;;
83094;SDS011;72967;43.674;6.976;2024-01-06T01:09:15;7.22;;;4.78;;
83094;SDS011;72967;43.674;6.976;2024-01-06T01:11:41;6.15;;;4.72;;
83094;SDS011;72967;43.674;6.976;2024-01-06T01:14:06;5.90;;;4.50;;
83094;SDS011;72967;43.674;6.976;2024-01-06T01:16:32;5.90;;;5.07;;
83094;SDS011;72967;43.674;6.976;2024-01-06T01:18:57;5.40;;;3.42;;
83094;SDS011;72967;43.674;6.976;2024-01-06T01:21:23;4.63;;;2.88;;
83094;SDS011;72967;43.674;6.976;2024-01-06T01:23:49;4.10;;;2.80;;
83094;SDS011;72967;43.674;6.976;2024-01-06T01:26:14;3.40;;;2.35;;
83094;SDS011;72967;43.674;6.976;2024-01-06T01:28:40;3.58;;;2.50;;
83094;SDS011;72967;43.674;6.976;2024-01-06T01:31:05;2.70;;;1.80;;
83094;SDS011;72967;43.674;6.976;2024-01-06T01:33:31;2.35;;;2.13;;
83094;SDS011;72967;43.674;6.976;2024-01-06T01:35:56;2.35;;;1.60;;
83094;SDS011;72967;43.674;6.976;2024-01-06T01:38:22;1.58;;;1.23;;
83094;SDS011;72967;43.674;6.976;2024-01-06T01:40:47;1.95;;;1.25;;
83094;SDS011;72967;43.674;6.976;2024-01-06T01:43:16;4.38;;;1.50;;
83094;SDS011;72967;43.674;6.976;2024-01-06T01:45:42;0.82;;;0.80;;
83094;SDS011;72967;43.674;6.976;2024-01-06T01:48:08;1.55;;;1.20;;
83094;SDS011;72967;43.674;6.976;2024-01-06T01:50:33;1.50;;;1.30;;
83094;SDS011;72967;43.674;6.976;2024-01-06T01:52:59;1.77;;;1.58;;
83094;SDS011;72967;43.674;6.976;2024-01-06T01:55:25;2.28;;;1.98;;
83094;SDS011;72967;43.674;6.976;2024-01-06T01:57:50;3.90;;;3.60;;
83094;SDS011;72967;43.674;6.976;2024-01-06T02:00:17;1.70;;;1.50;;
83094;SDS011;72967;43.674;6.976;2024-01-06T02:02:42;1.95;;;1.40;;
83094;SDS011;72967;43.674;6.976;2024-01-06T02:05:08;1.65;;;1.55;;
83094;SDS011;72967;43.674;6.976;2024-01-06T02:07:34;1.77;;;1.45;;
83094;SDS011;72967;43.674;6.976;2024-01-06T02:09:59;1.98;;;1.13;;
83094;SDS011;72967;43.674;6.976;2024-01-06T02:12:25;1.58;;;1.40;;
83094;SDS011;72967;43.674;6.976;2024-01-06T02:14:50;2.08;;;1.35;;
83094;SDS011;72967;43.674;6.976;2024-01-06T02:17:16;2.15;;;1.52;;
83094;SDS011;72967;43.674;6.976;2024-01-06T02:19:41;1.45;;;1.20;;
83094;SDS011;72967;43.674;6.976;2024-01-06T02:22:06;2.90;;;1.23;;
83094;SDS011;72967;43.674;6.976;2024-01-06T02:24:32;1.27;;;1.17;;
83094;SDS011;72967;43.674;6.976;2024-01-06T02:26:57;1.42;;;1.33;;
83094;SDS011;72967;43.674;6.976;2024-01-06T02:29:23;1.75;;;1.23;;
83094;SDS011;72967;43.674;6.976;2024-01-06T02:31:48;1.13;;;0.93;;
83094;SDS011;72967;43.674;6.976;2024-01-06T02:34:13;1.27;;;1.10;;
83094;SDS011;72967;43.674;6.976;2024-01-06T02:36:39;1.58;;;1.48;;
83094;SDS011;72967;43.674;6.976;2024-01-06T02:39:04;1.55;;;1.00;;
83094;SDS011;72967;43.674;6.976;2024-01-06T02:41:30;0.75;;;0.70;;
83094;SDS011;72967;43.674;6.976;2024-01-06T02:43:55;1.55;;;0.95;;
83094;SDS011;72967;43.674;6.976;2024-01-06T02:46:21;1.25;;;0.77;;
83094;SDS011;72967;43.674;6.976;2024-01-06T02:48:47;1.02;;;1.02;;
83094;SDS011;72967;43.674;6.976;2024-01-06T02:51:12;0.93;;;0.93;;
83094;SDS011;72967;43.674;6.976;2024-01-06T02:53:38;0.70;;;0.70;;
83094;SDS011;72967;43.674;6.976;2024-01-06T02:56:03;2.25;;;0.60;;
83094;SDS011;72967;43.674;6.976;2024-01-06T02:58:29;0.90;;;0.90;;
83094;SDS011;72967;43.674;6.976;2024-01-06T03:00:54;0.70;;;0.70;;
83094;SDS011;72967;43.674;6.976;2024-01-06T03:03:20;1.70;;;0.73;;
83094;SDS011;72967;43.674;6.976;2024-01-06T03:05:45;1.42;;;0.88;;
83094;SDS011;72967;43.674;6.976;2024-01-06T03:08:14;1.40;;;1.00;;
83094;SDS011;72967;43.674;6.976;2024-01-06T03:10:40;1.15;;;1.00;;
83094;SDS011;72967;43.674;6.976;2024-01-06T03:13:05;2.08;;;0.93;;
83094;SDS011;72967;43.674;6.976;2024-01-06T03:15:30;0.88;;;0.82;;
83094;SDS011;72967;43.674;6.976;2024-01-06T03:17:56;1.08;;;0.95;;
83094;SDS011;72967;43.674;6.976;2024-01-06T03:20:21;1.30;;;1.20;;
83094;SDS011;72967;43.674;6.976;2024-01-06T03:22:47;0.68;;;0.68;;
83094;SDS011;72967;43.674;6.976;2024-01-06T03:25:12;1.35;;;1.25;;
83094;SDS011;72967;43.674;6.976;2024-01-06T03:27:38;1.67;;;1.10;;
83094;SDS011;72967;43.674;6.976;2024-01-06T03:30:03;0.82;;;0.82;;
83094;SDS011;72967;43.674;6.976;2024-01-06T03:32:30;0.70;;;0.70;;
83094;SDS011;72967;43.674;6.976;2024-01-06T03:34:55;0.60;;;0.60;;
83094;SDS011;72967;43.674;6.976;2024-01-06T03:37:20;1.20;;;0.73;;
83094;SDS011;72967;43.674;6.976;2024-01-06T03:39:47;1.08;;;1.00;;
83094;SDS011;72967;43.674;6.976;2024-01-06T03:42:12;1.52;;;0.95;;
83094;SDS011;72967;43.674;6.976;2024-01-06T03:44:38;0.63;;;0.63;;
83094;SDS011;72967;43.674;6.976;2024-01-06T03:47:03;1.25;;;0.60;;
83094;SDS011;72967;43.674;6.976;2024-01-06T03:49:29;0.80;;;0.77;;
83094;SDS011;72967;43.674;6.976;2024-01-06T03:51:54;1.40;;;1.02;;
83094;SDS011;72967;43.674;6.976;2024-01-06T03:54:20;1.13;;;0.88;;
83094;SDS011;72967;43.674;6.976;2024-01-06T03:56:45;0.80;;;0.80;;
83094;SDS011;72967;43.674;6.976;2024-01-06T03:59:11;0.55;;;0.55;;
83094;SDS011;72967;43.674;6.976;2024-01-06T04:01:36;0.70;;;0.70;;
83094;SDS011;72967;43.674;6.976;2024-01-06T04:04:02;0.70;;;0.68;;
83094;SDS011;72967;43.674;6.976;2024-01-06T04:06:28;1.27;;;0.70;;
83094;SDS011;72967;43.674;6.976;2024-01-06T04:08:54;0.95;;;0.93;;
83094;SDS011;72967;43.674;6.976;2024-01-06T04:11:20;0.77;;;0.75;;
83094;SDS011;72967;43.674;6.976;2024-01-06T04:13:46;0.88;;;0.85;;
83094;SDS011;72967;43.674;6.976;2024-01-06T04:16:11;0.80;;;0.80;;
83094;SDS011;72967;43.674;6.976;2024-01-06T04:18:37;0.88;;;0.88;;
83094;SDS011;72967;43.674;6.976;2024-01-06T04:21:02;0.80;;;0.75;;
83094;SDS011;72967;43.674;6.976;2024-01-06T04:23:28;0.88;;;0.57;;
83094;SDS011;72967;43.674;6.976;2024-01-06T04:25:53;1.60;;;1.50;;
83094;SDS011;72967;43.674;6.976;2024-01-06T04:28:19;0.90;;;0.90;;
83094;SDS011;72967;43.674;6.976;2024-01-06T04:30:44;1.10;;;0.93;;
83094;SDS011;72967;43.674;6.976;2024-01-06T04:33:10;0.88;;;0.77;;
83094;SDS011;72967;43.674;6.976;2024-01-06T04:35:35;1.27;;;1.15;;
83094;SDS011;72967;43.674;6.976;2024-01-06T04:38:00;1.00;;;0.93;;
83094;SDS011;72967;43.674;6.976;2024-01-06T04:40:26;0.90;;;0.88;;
83094;SDS011;72967;43.674;6.976;2024-01-06T04:42:52;0.80;;;0.80;;
83094;SDS011;72967;43.674;6.976;2024-01-06T04:45:18;1.13;;;1.02;;
83094;SDS011;72967;43.674;6.976;2024-01-06T04:47:44;1.27;;;0.82;;
83094;SDS011;72967;43.674;6.976;2024-01-06T04:50:10;1.05;;;0.95;;
83094;SDS011;72967;43.674;6.976;2024-01-06T04:52:35;2.10;;;0.80;;
83094;SDS011;72967;43.674;6.976;2024-01-06T04:55:01;0.68;;;0.63;;
83094;SDS011;72967;43.674;6.976;2024-01-06T04:57:27;0.47;;;0.47;;
83094;SDS011;72967;43.674;6.976;2024-01-06T04:59:52;0.68;;;0.68;;
83094;SDS011;72967;43.674;6.976;2024-01-06T05:02:18;1.00;;;0.88;;
83094;SDS011;72967;43.674;6.976;2024-01-06T05:04:43;0.88;;;0.80;;
83094;SDS011;72967;43.674;6.976;2024-01-06T05:07:09;1.20;;;0.70;;
83094;SDS011;72967;43.674;6.976;2024-01-06T05:09:34;0.93;;;0.93;;
83094;SDS011;72967;43.674;6.976;2024-01-06T05:12:00;0.80;;;0.80;;
83094;SDS011;72967;43.674;6.976;2024-01-06T05:14:25;1.38;;;0.82;;
83094;SDS011;72967;43.674;6.976;2024-01-06T05:16:51;1.45;;;0.90;;
83094;SDS011;72967;43.674;6.976;2024-01-06T05:19:16;1.17;;;0.95;;
83094;SDS011;72967;43.674;6.976;2024-01-06T05:21:45;1.02;;;0.90;;
83094;SDS011;72967;43.674;6.976;2024-01-06T05:24:14;1.33;;;0.95;;
83094;SDS011;72967;43.674;6.976;2024-01-06T05:26:39;1.85;;;1.10;;
83094;SDS011;72967;43.674;6.976;2024-01-06T05:29:05;1.38;;;1.00;;
83094;SDS011;72967;43.674;6.976;2024-01-06T05:31:30;1.10;;;1.00;;
83094;SDS011;72967;43.674;6.976;2024-01-06T05:33:56;1.48;;;0.82;;
83094;SDS011;72967;43.674;6.976;2024-01-06T05:36:21;1.25;;;1.15;;
83094;SDS011;72967;43.674;6.976;2024-01-06T05:38:46;0.80;;;0.80;;
83094;SDS011;72967;43.674;6.976;2024-01-06T05:41:12;0.90;;;0.90;;
83094;SDS011;72967;43.674;6.976;2024-01-06T05:43:37;0.68;;;0.68;;
83094;SDS011;72967;43.674;6.976;2024-01-06T05:46:03;1.10;;;0.82;;
83094;SDS011;72967;43.674;6.976;2024-01-06T05:48:29;0.57;;;0.57;;
83094;SDS011;72967;43.674;6.976;2024-01-06T05:50:54;0.80;;;0.80;;
83094;SDS011;72967;43.674;6.976;2024-01-06T05:53:20;1.02;;;0.50;;
83094;SDS011;72967;43.674;6.976;2024-01-06T05:55:45;0.65;;;0.65;;
83094;SDS011;72967;43.674;6.976;2024-01-06T05:58:11;2.22;;;0.65;;
83094;SDS011;72967;43.674;6.976;2024-01-06T06:00:36;0.80;;;0.80;;
83094;SDS011;72967;43.674;6.976;2024-01-06T06:03:02;0.52;;;0.52;;
83094;SDS011;72967;43.674;6.976;2024-01-06T06:05:27;0.60;;;0.60;;
83094;SDS011;72967;43.674;6.976;2024-01-06T06:07:53;0.80;;;0.60;;
83094;SDS011;72967;43.674;6.976;2024-01-06T06:10:19;0.80;;;0.65;;
83094;SDS011;72967;43.674;6.976;2024-01-06T06:12:45;0.75;;;0.75;;
83094;SDS011;72967;43.674;6.976;2024-01-06T06:15:11;0.70;;;0.70;;
83094;SDS011;72967;43.674;6.976;2024-01-06T06:17:36;0.77;;;0.77;;
83094;SDS011;72967;43.674;6.976;2024-01-06T06:20:02;0.90;;;0.90;;
83094;SDS011;72967;43.674;6.976;2024-01-06T06:22:29;1.00;;;0.90;;
83094;SDS011;72967;43.674;6.976;2024-01-06T06:25:04;1.45;;;1.35;;
83094;SDS011;72967;43.674;6.976;2024-01-06T06:27:30;1.00;;;0.95;;
83094;SDS011;72967;43.674;6.976;2024-01-06T06:29:55;1.08;;;0.98;;
83094;SDS011;72967;43.674;6.976;2024-01-06T06:32:24;0.93;;;0.85;;
83094;SDS011;72967;43.674;6.976;2024-01-06T06:34:50;0.85;;;0.82;;
83094;SDS011;72967;43.674;6.976;2024-01-06T06:37:15;0.60;;;0.60;;
83094;SDS011;72967;43.674;6.976;2024-01-06T06:39:41;1.92;;;0.75;;
83094;SDS011;72967;43.674;6.976;2024-01-06T06:42:09;0.70;;;0.70;;
83094;SDS011;72967;43.674;6.976;2024-01-06T06:44:34;0.90;;;0.70;;
83094;SDS011;72967;43.674;6.976;2024-01-06T06:47:00;1.55;;;0.88;;
83094;SDS011;72967;43.674;6.976;2024-01-06T06:49:26;1.05;;;0.90;;
83094;SDS011;72967;43.674;6.976;2024-01-06T06:51:51;1.38;;;1.10;;
83094;SDS011;72967;43.674;6.976;2024-01-06T06:54:17;1.10;;;1.00;;
83094;SDS011;72967;43.674;6.976;2024-01-06T06:56:42;0.95;;;0.85;;
83094;SDS011;72967;43.674;6.976;2024-01-06T06:59:08;0.55;;;0.55;;
83094;SDS011;72967;43.674;6.976;2024-01-06T07:01:33;0.90;;;0.75;;
83094;SDS011;72967;43.674;6.976;2024-01-06T07:04:00;1.27;;;0.90;;
83094;SDS011;72967;43.674;6.976;2024-01-06T07:06:26;0.85;;;0.80;;
83094;SDS011;72967;43.674;6.976;2024-01-06T07:08:51;2.17;;;1.42;;
83094;SDS011;72967;43.674;6.976;2024-01-06T07:11:17;1.77;;;1.20;;
83094;SDS011;72967;43.674;6.976;2024-01-06T07:13:43;1.33;;;1.08;;
83094;SDS011;72967;43.674;6.976;2024-01-06T07:16:09;1.08;;;1.02;;
83094;SDS011;72967;43.674;6.976;2024-01-06T07:18:34;0.90;;;0.90;;
83094;SDS011;72967;43.674;6.976;2024-01-06T07:21:00;1.40;;;1.30;;
83094;SDS011;72967;43.674;6.976;2024-01-06T07:23:25;1.67;;;1.30;;
83094;SDS011;72967;43.674;6.976;2024-01-06T07:25:51;0.93;;;0.80;;
83094;SDS011;72967;43.674;6.976;2024-01-06T07:28:16;0.80;;;0.80;;
83094;SDS011;72967;43.674;6.976;2024-01-06T07:30:42;1.42;;;1.05;;
83094;SDS011;72967;43.674;6.976;2024-01-06T07:33:07;1.02;;;0.88;;
83094;SDS011;72967;43.674;6.976;2024-01-06T07:35:33;1.10;;;1.00;;
83094;SDS011;72967;43.674;6.976;2024-01-06T07:37:58;0.60;;;0.60;;
83094;SDS011;72967;43.674;6.976;2024-01-06T07:40:24;0.80;;;0.70;;
83094;SDS011;72967;43.674;6.976;2024-01-06T07:42:50;0.82;;;0.75;;
83094;SDS011;72967;43.674;6.976;2024-01-06T07:45:16;1.70;;;1.25;;
83094;SDS011;72967;43.674;6.976;2024-01-06T07:47:42;1.02;;;0.88;;
83094;SDS011;72967;43.674;6.976;2024-01-06T07:50:08;0.60;;;0.60;;
83094;SDS011;72967;43.674;6.976;2024-01-06T07:52:34;1.20;;;1.08;;
83094;SDS011;72967;43.674;6.976;2024-01-06T07:54:59;2.28;;;0.85;;
83094;SDS011;72967;43.674;6.976;2024-01-06T07:57:25;0.98;;;0.77;;
83094;SDS011;72967;43.674;6.976;2024-01-06T07:59:50;0.80;;;0.80;;
83094;SDS011;72967;43.674;6.976;2024-01-06T08:02:16;0.60;;;0.60;;
83094;SDS011;72967;43.674;6.976;2024-01-06T08:04:42;0.63;;;0.60;;
83094;SDS011;72967;43.674;6.976;2024-01-06T08:07:07;0.50;;;0.50;;
83094;SDS011;72967;43.674;6.976;2024-01-06T08:09:33;1.05;;;0.90;;
83094;SDS011;72967;43.674;6.976;2024-01-06T08:11:58;1.27;;;0.63;;
83094;SDS011;72967;43.674;6.976;2024-01-06T08:14:24;0.60;;;0.60;;
83094;SDS011;72967;43.674;6.976;2024-01-06T08:16:49;1.00;;;0.77;;
83094;SDS011;72967;43.674;6.976;2024-01-06T08:19:15;1.60;;;0.50;;
83094;SDS011;72967;43.674;6.976;2024-01-06T08:21:41;0.80;;;0.70;;
83094;SDS011;72967;43.674;6.976;2024-01-06T08:24:06;0.70;;;0.60;;
83094;SDS011;72967;43.674;6.976;2024-01-06T08:26:32;0.75;;;0.75;;
83094;SDS011;72967;43.674;6.976;2024-01-06T08:28:57;0.60;;;0.47;;
83094;SDS011;72967;43.674;6.976;2024-01-06T08:31:23;1.23;;;0.80;;
83094;SDS011;72967;43.674;6.976;2024-01-06T08:33:48;0.77;;;0.75;;
83094;SDS011;72967;43.674;6.976;2024-01-06T08:36:14;0.80;;;0.80;;
83094;SDS011;72967;43.674;6.976;2024-01-06T08:38:39;0.90;;;0.70;;
83094;SDS011;72967;43.674;6.976;2024-01-06T08:41:05;0.70;;;0.70;;
83094;SDS011;72967;43.674;6.976;2024-01-06T08:43:30;0.60;;;0.60;;
83094;SDS011;72967;43.674;6.976;2024-01-06T08:45:55;0.77;;;0.60;;
83094;SDS011;72967;43.674;6.976;2024-01-06T08:48:21;0.70;;;0.70;;
83094;SDS011;72967;43.674;6.976;2024-01-06T08:50:47;0.77;;;0.77;;
83094;SDS011;72967;43.674;6.976;2024-01-06T08:53:12;0.57;;;0.57;;
83094;SDS011;72967;43.674;6.976;2024-01-06T08:55:38;0.50;;;0.50;;
83094;SDS011;72967;43.674;6.976;2024-01-06T08:58:04;0.77;;;0.77;;
83094;SDS011;72967;43.674;6.976;2024-01-06T09:00:30;1.13;;;0.80;;
83094;SDS011;72967;43.674;6.976;2024-01-06T09:02:56;1.65;;;0.85;;
83094;SDS011;72967;43.674;6.976;2024-01-06T09:05:21;2.58;;;0.80;;
83094;SDS011;72967;43.674;6.976;2024-01-06T09:07:47;1.67;;;0.77;;
83094;SDS011;72967;43.674;6.976;2024-01-06T09:10:15;0.93;;;0.80;;
83094;SDS011;72967;43.674;6.976;2024-01-06T09:12:44;0.90;;;0.90;;
83094;SDS011;72967;43.674;6.976;2024-01-06T09:15:10;0.82;;;0.77;;
83094;SDS011;72967;43.674;6.976;2024-01-06T09:17:35;0.65;;;0.65;;
83094;SDS011;72967;43.674;6.976;2024-01-06T09:20:01;1.13;;;1.00;;
83094;SDS011;72967;43.674;6.976;2024-01-06T09:22:27;0.90;;;0.70;;
83094;SDS011;72967;43.674;6.976;2024-01-06T09:24:52;0.57;;;0.50;;
83094;SDS011;72967;43.674;6.976;2024-01-06T09:27:19;0.50;;;0.50;;
83094;SDS011;72967;43.674;6.976;2024-01-06T09:29:44;0.50;;;0.50;;
83094;SDS011;72967;43.674;6.976;2024-01-06T09:32:10;0.70;;;0.70;;
83094;SDS011;72967;43.674;6.976;2024-01-06T09:34:35;1.40;;;0.70;;
83094;SDS011;72967;43.674;6.976;2024-01-06T09:37:00;1.33;;;0.90;;
83094;SDS011;72967;43.674;6.976;2024-01-06T09:39:26;1.10;;;1.00;;
83094;SDS011;72967;43.674;6.976;2024-01-06T09:41:51;0.90;;;0.63;;
83094;SDS011;72967;43.674;6.976;2024-01-06T09:44:17;1.27;;;1.17;;
83094;SDS011;72967;43.674;6.976;2024-01-06T09:46:43;0.70;;;0.70;;
83094;SDS011;72967;43.674;6.976;2024-01-06T09:49:09;0.80;;;0.80;;
83094;SDS011;72967;43.674;6.976;2024-01-06T09:51:36;0.90;;;0.65;;
83094;SDS011;72967;43.674;6.976;2024-01-06T09:54:04;0.77;;;0.60;;
83094;SDS011;72967;43.674;6.976;2024-01-06T09:56:33;1.13;;;0.70;;
83094;SDS011;72967;43.674;6.976;2024-01-06T09:58:59;0.75;;;0.68;;
83094;SDS011;72967;43.674;6.976;2024-01-06T10:01:25;0.70;;;0.70;;
83094;SDS011;72967;43.674;6.976;2024-01-06T10:03:50;0.85;;;0.85;;
83094;SDS011;72967;43.674;6.976;2024-01-06T10:06:16;1.63;;;0.70;;
83094;SDS011;72967;43.674;6.976;2024-01-06T10:08:43;1.50;;;1.00;;
83094;SDS011;72967;43.674;6.976;2024-01-06T10:11:09;1.88;;;1.02;;
83094;SDS011;72967;43.674;6.976;2024-01-06T10:13:35;0.95;;;0.80;;
83094;SDS011;72967;43.674;6.976;2024-01-06T10:16:03;0.47;;;0.47;;
83094;SDS011;72967;43.674;6.976;2024-01-06T10:18:29;0.43;;;0.43;;
83094;SDS011;72967;43.674;6.976;2024-01-06T10:20:56;0.70;;;0.70;;
83094;SDS011;72967;43.674;6.976;2024-01-06T10:23:22;1.42;;;0.63;;
83094;SDS011;72967;43.674;6.976;2024-01-06T10:25:51;0.80;;;0.80;;
83094;SDS011;72967;43.674;6.976;2024-01-06T10:28:17;1.10;;;1.00;;
83094;SDS011;72967;43.674;6.976;2024-01-06T10:30:43;1.10;;;1.00;;
83094;SDS011;72967;43.674;6.976;2024-01-06T10:33:09;1.98;;;1.08;;
83094;SDS011;72967;43.674;6.976;2024-01-06T10:35:35;1.20;;;0.82;;
83094;SDS011;72967;43.674;6.976;2024-01-06T10:38:02;2.97;;;1.80;;
83094;SDS011;72967;43.674;6.976;2024-01-06T10:40:28;1.45;;;1.05;;
83094;SDS011;72967;43.674;6.976;2024-01-06T10:42:54;2.38;;;1.20;;
83094;SDS011;72967;43.674;6.976;2024-01-06T10:45:22;1.17;;;0.93;;
83094;SDS011;72967;43.674;6.976;2024-01-06T10:47:48;1.40;;;1.30;;
83094;SDS011;72967;43.674;6.976;2024-01-06T10:50:14;1.25;;;0.73;;
83094;SDS011;72967;43.674;6.976;2024-01-06T10:52:42;1.02;;;1.02;;
83094;SDS011;72967;43.674;6.976;2024-01-06T10:55:08;0.88;;;0.88;;
83094;SDS011;72967;43.674;6.976;2024-01-06T10:57:34;0.98;;;0.75;;
83094;SDS011;72967;43.674;6.976;2024-01-06T11:00:03;1.15;;;0.65;;
83094;SDS011;72967;43.674;6.976;2024-01-06T11:02:30;1.05;;;0.93;;
83094;SDS011;72967;43.674;6.976;2024-01-06T11:04:56;0.60;;;0.60;;
83094;SDS011;72967;43.674;6.976;2024-01-06T11:07:23;0.55;;;0.55;;
83094;SDS011;72967;43.674;6.976;2024-01-06T11:10:12;1.02;;;0.90;;
83094;SDS011;72967;43.674;6.976;2024-01-06T11:12:40;0.75;;;0.75;;
83094;SDS011;72967;43.674;6.976;2024-01-06T11:15:07;0.70;;;0.70;;
83094;SDS011;72967;43.674;6.976;2024-01-06T11:20:18;1.90;;;1.05;;
83094;SDS011;72967;43.674;6.976;2024-01-06T11:22:46;2.10;;;1.88;;
83094;SDS011;72967;43.674;6.976;2024-01-06T11:25:15;4.00;;;2.40;;
83094;SDS011;72967;43.674;6.976;2024-01-06T11:27:43;3.88;;;3.45;;
83094;SDS011;72967;43.674;6.976;2024-01-06T11:30:18;4.93;;;3.65;;
83094;SDS011;72967;43.674;6.976;2024-01-06T11:32:45;5.90;;;4.22;;
83094;SDS011;72967;43.674;6.976;2024-01-06T11:35:12;4.35;;;2.38;;
83094;SDS011;72967;43.674;6.976;2024-01-06T11:42:45;2.10;;;1.50;;
83094;SDS011;72967;43.674;6.976;2024-01-06T11:45:12;8.60;;;6.38;;
83094;SDS011;72967;43.674;6.976;2024-01-06T11:47:38;6.60;;;4.72;;
83094;SDS011;72967;43.674;6.976;2024-01-06T11:50:04;6.88;;;5.13;;
83094;SDS011;72967;43.674;6.976;2024-01-06T11:52:33;4.80;;;3.20;;
83094;SDS011;72967;43.674;6.976;2024-01-06T11:55:00;2.45;;;1.95;;
83094;SDS011;72967;43.674;6.976;2024-01-06T11:57:26;4.25;;;2.45;;
83094;SDS011;72967;43.674;6.976;2024-01-06T11:59:53;4.43;;;2.42;;
83094;SDS011;72967;43.674;6.976;2024-01-06T12:02:22;5.07;;;3.35;;
83094;SDS011;72967;43.674;6.976;2024-01-06T12:04:51;7.00;;;4.57;;
83094;SDS011;72967;43.674;6.976;2024-01-06T12:07:21;5.45;;;3.72;;
83094;SDS011;72967;43.674;6.976;2024-01-06T12:10:00;4.55;;;3.90;;
83094;SDS011;72967;43.674;6.976;2024-01-06T12:12:27;8.18;;;4.68;;
83094;SDS011;72967;43.674;6.976;2024-01-06T12:14:53;7.15;;;5.43;;
83094;SDS011;72967;43.674;6.976;2024-01-06T12:17:19;6.82;;;4.72;;
83094;SDS011;72967;43.674;6.976;2024-01-06T12:19:46;6.03;;;3.25;;
83094;SDS011;72967;43.674;6.976;2024-01-06T12:22:12;5.82;;;3.85;;
83094;SDS011;72967;43.674;6.976;2024-01-06T12:24:39;6.72;;;4.88;;
83094;SDS011;72967;43.674;6.976;2024-01-06T12:27:06;6.00;;;3.67;;
83094;SDS011;72967;43.674;6.976;2024-01-06T12:29:39;3.25;;;2.45;;
83094;SDS011;72967;43.674;6.976;2024-01-06T12:34:31;2.65;;;2.13;;
83094;SDS011;72967;43.674;6.976;2024-01-06T12:36:56;2.30;;;2.10;;
83094;SDS011;72967;43.674;6.976;2024-01-06T12:39:23;3.08;;;2.10;;
83094;SDS011;72967;43.674;6.976;2024-01-06T12:41:52;3.60;;;2.08;;
83094;SDS011;72967;43.674;6.976;2024-01-06T12:44:21;2.95;;;1.88;;
83094;SDS011;72967;43.674;6.976;2024-01-06T12:46:48;3.20;;;1.92;;
83094;SDS011;72967;43.674;6.976;2024-01-06T12:49:14;2.75;;;1.92;;
83094;SDS011;72967;43.674;6.976;2024-01-06T12:51:39;4.00;;;2.05;;
83094;SDS011;72967;43.674;6.976;2024-01-06T12:54:04;2.28;;;1.73;;
83094;SDS011;72967;43.674;6.976;2024-01-06T12:56:30;2.60;;;1.58;;
83094;SDS011;72967;43.674;6.976;2024-01-06T12:58:56;3.78;;;1.80;;
83094;SDS011;72967;43.674;6.976;2024-01-06T13:01:22;2.63;;;1.33;;
83094;SDS011;72967;43.674;6.976;2024-01-06T13:03:47;23.98;;;14.55;;
83094;SDS011;72967;43.674;6.976;2024-01-06T13:06:13;9.90;;;5.65;;
83094;SDS011;72967;43.674;6.976;2024-01-06T13:08:39;2.78;;;1.80;;
83094;SDS011;72967;43.674;6.976;2024-01-06T13:11:05;3.28;;;1.80;;
83094;SDS011;72967;43.674;6.976;2024-01-06T13:13:31;3.13;;;2.13;;
83094;SDS011;72967;43.674;6.976;2024-01-06T13:15:57;5.90;;;4.03;;
83094;SDS011;72967;43.674;6.976;2024-01-06T13:18:22;6.53;;;3.45;;
83094;SDS011;72967;43.674;6.976;2024-01-06T13:20:48;8.57;;;4.68;;
83094;SDS011;72967;43.674;6.976;2024-01-06T13:23:14;6.65;;;4.63;;
83094;SDS011;72967;43.674;6.976;2024-01-06T13:25:40;5.82;;;3.08;;
83094;SDS011;72967;43.674;6.976;2024-01-06T13:28:06;3.78;;;3.33;;
83094;SDS011;72967;43.674;6.976;2024-01-06T13:30:32;4.10;;;3.38;;
83094;SDS011;72967;43.674;6.976;2024-01-06T13:32:59;2.83;;;1.95;;
83094;SDS011;72967;43.674;6.976;2024-01-06T13:35:25;2.22;;;1.70;;
83094;SDS011;72967;43.674;6.976;2024-01-06T13:37:54;2.60;;;2.03;;
83094;SDS011;72967;43.674;6.976;2024-01-06T13:40:21;2.33;;;1.73;;
83094;SDS011;72967;43.674;6.976;2024-01-06T13:42:48;2.35;;;1.50;;
83094;SDS011;72967;43.674;6.976;2024-01-06T13:45:14;1.73;;;1.45;;
83094;SDS011;72967;43.674;6.976;2024-01-06T13:47:40;2.08;;;1.52;;
83094;SDS011;72967;43.674;6.976;2024-01-06T13:50:16;2.53;;;1.42;;
83094;SDS011;72967;43.674;6.976;2024-01-06T13:52:42;2.28;;;1.50;;
83094;SDS011;72967;43.674;6.976;2024-01-06T13:55:08;2.78;;;1.90;;
83094;SDS011;72967;43.674;6.976;2024-01-06T13:57:35;2.83;;;1.80;;
83094;SDS011;72967;43.674;6.976;2024-01-06T14:00:02;2.95;;;1.75;;
83094;SDS011;72967;43.674;6.976;2024-01-06T14:02:29;3.53;;;1.73;;
83094;SDS011;72967;43.674;6.976;2024-01-06T14:04:55;2.45;;;1.92;;
83094;SDS011;72967;43.674;6.976;2024-01-06T14:07:21;2.83;;;1.88;;
83094;SDS011;72967;43.674;6.976;2024-01-06T14:09:47;2.42;;;1.58;;
83094;SDS011;72967;43.674;6.976;2024-01-06T14:12:13;2.45;;;1.95;;
83094;SDS011;72967;43.674;6.976;2024-01-06T14:14:39;3.00;;;1.70;;
83094;SDS011;72967;43.674;6.976;2024-01-06T14:17:06;3.17;;;2.15;;
83094;SDS011;72967;43.674;6.976;2024-01-06T14:19:32;1.85;;;1.63;;
83094;SDS011;72967;43.674;6.976;2024-01-06T14:21:57;5.20;;;4.70;;
83094;SDS011;72967;43.674;6.976;2024-01-06T14:24:23;3.47;;;2.80;;
83094;SDS011;72967;43.674;6.976;2024-01-06T14:26:50;3.63;;;2.20;;
83094;SDS011;72967;43.674;6.976;2024-01-06T14:29:16;3.78;;;2.20;;
83094;SDS011;72967;43.674;6.976;2024-01-06T14:31:42;4.25;;;2.00;;
83094;SDS011;72967;43.674;6.976;2024-01-06T14:34:08;2.88;;;1.75;;
83094;SDS011;72967;43.674;6.976;2024-01-06T14:36:34;2.28;;;1.70;;
83094;SDS011;72967;43.674;6.976;2024-01-06T14:38:59;3.28;;;1.90;;
83094;SDS011;72967;43.674;6.976;2024-01-06T14:41:25;3.05;;;1.63;;
83094;SDS011;72967;43.674;6.976;2024-01-06T14:43:51;3.25;;;1.88;;
83094;SDS011;72967;43.674;6.976;2024-01-06T14:46:17;3.47;;;2.42;;
83094;SDS011;72967;43.674;6.976;2024-01-06T14:48:43;4.47;;;2.03;;
83094;SDS011;72967;43.674;6.976;2024-01-06T14:51:09;4.45;;;2.30;;